TimeCDT,TemperatureF,Dew PointF,Humidity,Sea Level PressureIn,VisibilityMPH,Wind Direction,Wind SpeedMPH,Gust SpeedMPH,PrecipitationIn,Events,Conditions,WindDirDegrees,DateUTC
12:53 AM,66.0,63.0,90,30.06,8.0,NNW,17.3,-,0.00,Rain,Light Rain,340,2012-10-08 05:53:00
1:53 AM,64.0,62.1,93,30.07,8.0,NNW,17.3,-,0.01,Rain,Light Rain,340,2012-10-08 06:53:00
2:35 AM,64.4,62.6,94,30.07,7.0,NNW,16.1,-,0.02,Rain,Light Rain,340,2012-10-08 07:35:00
2:46 AM,64.4,60.8,88,30.07,8.0,NNW,16.1,-,0.02,Rain,Light Rain,340,2012-10-08 07:46:00
2:53 AM,64.0,61.0,90,30.07,8.0,NNW,16.1,-,0.02,Rain,Light Rain,340,2012-10-08 07:53:00
3:53 AM,64.0,60.1,87,30.06,9.0,NNW,17.3,-,0.00,Rain,Light Rain,330,2012-10-08 08:53:00
4:53 AM,64.0,60.1,87,30.06,10.0,NNW,16.1,-,0.00,,Overcast,330,2012-10-08 09:53:00
5:53 AM,63.0,57.0,81,30.08,10.0,NNW,17.3,-,N/A,,Overcast,330,2012-10-08 10:53:00
6:53 AM,63.0,55.9,78,30.09,10.0,NNW,13.8,-,N/A,,Overcast,340,2012-10-08 11:53:00
7:53 AM,64.0,55.9,75,30.11,10.0,NNW,17.3,-,N/A,,Overcast,330,2012-10-08 12:53:00
8:53 AM,64.0,55.9,75,30.13,10.0,NNW,17.3,-,N/A,,Overcast,340,2012-10-08 13:53:00
9:53 AM,64.0,55.0,73,30.16,10.0,NNW,17.3,-,N/A,,Overcast,330,2012-10-08 14:53:00
10:53 AM,64.9,55.0,70,30.15,10.0,NNW,21.9,28.8,N/A,,Overcast,340,2012-10-08 15:53:00
11:23 AM,64.4,55.4,73,30.16,10.0,NNW,18.4,-,N/A,,Overcast,340,2012-10-08 16:23:00
11:53 AM,66.0,55.9,70,30.16,10.0,NNW,17.3,25.3,N/A,,Overcast,340,2012-10-08 16:53:00
12:53 PM,66.9,57.0,70,30.14,9.0,NNW,20.7,25.3,N/A,,Overcast,340,2012-10-08 17:53:00
1:53 PM,66.9,57.9,73,30.12,9.0,NNW,19.6,25.3,N/A,,Overcast,330,2012-10-08 18:53:00
2:53 PM,68.0,57.9,70,30.10,9.0,NNW,17.3,-,N/A,,Overcast,340,2012-10-08 19:53:00
3:53 PM,68.0,60.1,76,30.08,8.0,NNW,18.4,-,N/A,,Overcast,330,2012-10-08 20:53:00
5:53 PM,69.1,61.0,75,30.07,8.0,NNW,13.8,20.7,N/A,,Overcast,340,2012-10-08 22:53:00
6:53 PM,68.0,61.0,78,30.07,8.0,NNW,11.5,-,N/A,,Overcast,340,2012-10-08 23:53:00
7:51 PM,68.0,60.8,78,30.07,10.0,NNW,11.5,-,N/A,,Overcast,340,2012-10-09 00:51:00
7:53 PM,68.0,61.0,78,30.07,10.0,NNW,12.7,-,N/A,,Overcast,340,2012-10-09 00:53:00
8:53 PM,68.0,62.1,81,30.08,9.0,NNW,11.5,-,0.00,,Overcast,330,2012-10-09 01:53:00
9:53 PM,68.0,64.0,87,30.08,9.0,NW,8.1,-,0.00,Rain,Light Rain,320,2012-10-09 02:53:00
10:53 PM,68.0,63.0,84,30.08,10.0,NW,6.9,-,N/A,,Overcast,310,2012-10-09 03:53:00
11:53 PM,68.0,62.1,81,30.08,10.0,WNW,5.8,-,N/A,,Overcast,300,2012-10-09 04:53:00